Time;durP1;ratioP1;P1;durP2;ratioP2;P2;SDS_P1;SDS_P2;PMS_P1;PMS_P2;Temp;Humidity;BMP_temperature;BMP_pressure;BME280_temperature;BME280_humidity;BME280_pressure;Samples;Min_cycle;Max_cycle;Signal;HPM_P1;HPM_P2
2023/09/16 00:00:33;;;;;;;13.05;8.30;;;14.20;99.90;;;;;;5014716;28;20271;-75
2023/09/16 00:03:03;;;;;;;10.75;7.95;;;14.20;99.90;;;;;;5015156;28;20156;-79
2023/09/16 00:05:30;;;;;;;11.98;7.85;;;14.10;99.90;;;;;;5012175;28;20737;-76
2023/09/16 00:07:55;;;;;;;10.70;7.57;;;14.10;99.90;;;;;;5013109;28;20206;-76
2023/09/16 00:10:21;;;;;;;11.25;8.05;;;14.20;99.90;;;;;;4997390;28;20644;-75
2023/09/16 00:12:47;;;;;;;13.77;8.18;;;14.10;99.90;;;;;;5014897;28;20168;-75
2023/09/16 00:15:13;;;;;;;13.38;7.90;;;14.10;99.90;;;;;;4996183;28;20219;-76
2023/09/16 00:17:39;;;;;;;10.90;7.50;;;14.10;99.90;;;;;;4996816;28;20699;-76
2023/09/16 00:20:11;;;;;;;12.30;8.27;;;14.10;99.90;;;;;;4996910;28;20234;-76
2023/09/16 00:22:37;;;;;;;12.85;8.30;;;14.00;99.90;;;;;;5013258;28;20566;-75
2023/09/16 00:25:04;;;;;;;11.15;7.72;;;14.00;99.90;;;;;;4996747;28;20211;-75
2023/09/16 00:27:30;;;;;;;14.05;8.60;;;14.00;99.90;;;;;;5013822;28;20542;-75
2023/09/16 00:29:56;;;;;;;9.30;7.70;;;14.00;99.90;;;;;;5013185;28;20180;-75
2023/09/16 00:32:22;;;;;;;11.85;8.68;;;14.00;99.90;;;;;;4995100;28;20187;-76
2023/09/16 00:34:49;;;;;;;11.38;8.27;;;14.00;99.90;;;;;;4996456;28;20222;-76
2023/09/16 00:37:14;;;;;;;11.05;9.32;;;14.00;99.90;;;;;;4996220;28;20187;-75
2023/09/16 00:39:41;;;;;;;12.18;8.48;;;14.00;99.90;;;;;;5014419;28;20183;-75
2023/09/16 00:42:06;;;;;;;9.93;8.35;;;14.00;99.90;;;;;;4996946;28;20180;-75
2023/09/16 00:44:32;;;;;;;11.48;8.45;;;14.00;99.90;;;;;;5014250;28;20207;-76
2023/09/16 00:46:58;;;;;;;12.50;8.88;;;13.90;99.90;;;;;;4995790;28;20644;-75
2023/09/16 00:49:28;;;;;;;10.50;7.82;;;13.90;99.90;;;;;;4996605;28;20198;-75
2023/09/16 00:51:55;;;;;;;15.18;8.50;;;13.90;99.90;;;;;;4995510;28;20206;-75
2023/09/16 00:54:20;;;;;;;12.80;7.90;;;13.90;99.90;;;;;;4996320;28;20238;-76
2023/09/16 00:56:47;;;;;;;10.02;7.78;;;13.90;99.90;;;;;;4996654;28;20644;-75
2023/09/16 00:59:13;;;;;;;10.38;7.72;;;13.90;99.90;;;;;;5012807;28;20183;-75
2023/09/16 01:01:40;;;;;;;11.75;8.05;;;13.80;99.90;;;;;;5012744;28;20233;-76
2023/09/16 01:04:07;;;;;;;11.35;8.23;;;13.80;99.90;;;;;;4996402;28;20215;-75
2023/09/16 01:06:32;;;;;;;10.73;8.27;;;13.80;99.90;;;;;;4995067;28;20290;-76
2023/09/16 01:08:59;;;;;;;11.90;7.78;;;13.80;99.90;;;;;;4996552;28;20263;-76
2023/09/16 01:11:25;;;;;;;10.73;7.63;;;13.80;99.90;;;;;;4996135;28;20180;-75
2023/09/16 01:13:51;;;;;;;12.38;8.15;;;13.80;99.90;;;;;;5012620;28;20281;-76
2023/09/16 01:16:48;;;;;;;12.60;7.60;;;13.70;99.90;;;;;;4994642;28;20231;-76
2023/09/16 01:19:13;;;;;;;9.02;7.28;;;13.70;99.90;;;;;;4996310;28;20221;-75
2023/09/16 01:21:39;;;;;;;8.85;6.85;;;13.70;99.90;;;;;;4988492;28;20653;-75
2023/09/16 01:24:24;;;;;;;11.32;8.32;;;13.70;99.90;;;;;;4976766;28;20212;-76
2023/09/16 01:26:50;;;;;;;9.15;6.95;;;13.60;99.90;;;;;;5013681;28;20179;-75
2023/09/16 01:29:18;;;;;;;8.60;7.18;;;13.60;99.90;;;;;;5013185;28;20514;-76
2023/09/16 01:31:45;;;;;;;9.40;7.40;;;13.60;99.90;;;;;;4994554;28;20179;-75
2023/09/16 01:34:27;;;;;;;11.57;7.35;;;13.60;99.90;;;;;;5014320;28;20203;-75
2023/09/16 01:36:57;;;;;;;10.13;8.07;;;13.50;99.90;;;;;;5006397;28;20191;-76
2023/09/16 01:39:24;;;;;;;12.57;8.02;;;13.50;99.90;;;;;;5014020;28;20311;-75
2023/09/16 01:41:52;;;;;;;9.40;7.82;;;13.50;99.90;;;;;;5012429;28;20184;-75
2023/09/16 01:44:18;;;;;;;14.35;8.23;;;13.50;99.90;;;;;;5013884;28;20350;-76
2023/09/16 01:46:43;;;;;;;10.82;7.82;;;13.50;99.90;;;;;;5009591;28;20215;-75
2023/09/16 01:49:09;;;;;;;11.13;7.97;;;13.50;99.90;;;;;;5016550;28;20579;-76
2023/09/16 01:51:35;;;;;;;11.20;8.43;;;13.60;99.90;;;;;;5016149;28;20636;-75
2023/09/16 01:54:01;;;;;;;13.88;7.40;;;13.60;99.90;;;;;;5017307;28;20265;-75
2023/09/16 01:56:27;;;;;;;13.80;8.18;;;13.60;99.90;;;;;;4993313;28;20247;-75
2023/09/16 01:58:52;;;;;;;11.68;8.02;;;13.70;99.90;;;;;;4996728;28;20199;-75
2023/09/16 02:01:18;;;;;;;13.07;7.32;;;13.70;99.90;;;;;;4989360;28;20547;-75
2023/09/16 02:03:44;;;;;;;10.30;7.80;;;13.70;99.90;;;;;;4999544;28;20741;-76
2023/09/16 02:06:10;;;;;;;12.30;7.90;;;13.80;99.90;;;;;;4997441;28;20192;-75
2023/09/16 02:08:35;;;;;;;12.75;7.75;;;13.80;99.90;;;;;;4999666;28;20183;-75
2023/09/16 02:11:01;;;;;;;9.23;7.32;;;13.90;99.90;;;;;;4999578;28;20219;-75
2023/09/16 02:13:27;;;;;;;10.15;7.03;;;13.90;99.90;;;;;;4999634;28;20179;-75
2023/09/16 02:15:53;;;;;;;9.40;7.20;;;13.90;99.90;;;;;;5015232;28;20791;-75
2023/09/16 02:18:18;;;;;;;8.40;7.40;;;14.00;99.90;;;;;;5017323;28;20195;-76
2023/09/16 02:20:44;;;;;;;9.98;7.72;;;14.00;99.90;;;;;;5014629;28;20199;-75
2023/09/16 02:23:10;;;;;;;9.75;8.20;;;14.00;99.90;;;;;;5016186;28;20187;-75
2023/09/16 02:25:36;;;;;;;10.75;7.78;;;14.00;99.90;;;;;;5016550;28;20207;-75
2023/09/16 02:28:02;;;;;;;8.23;6.47;;;14.00;99.90;;;;;;4998593;28;20188;-76
2023/09/16 02:30:28;;;;;;;10.07;7.28;;;14.00;99.90;;;;;;4998741;28;20195;-76
2023/09/16 02:32:54;;;;;;;11.30;7.25;;;14.00;99.90;;;;;;5017025;28;20600;-76
2023/09/16 02:35:19;;;;;;;13.68;7.35;;;14.00;99.90;;;;;;5015717;28;20286;-76
2023/09/16 02:37:45;;;;;;;9.88;6.70;;;14.00;99.90;;;;;;5016833;28;20172;-75
2023/09/16 02:40:11;;;;;;;12.45;7.38;;;14.00;99.90;;;;;;4999029;28;20186;-75
2023/09/16 02:42:37;;;;;;;11.50;7.88;;;13.90;99.90;;;;;;5015470;28;20180;-75
2023/09/16 02:45:03;;;;;;;8.77;7.07;;;13.80;99.90;;;;;;4998506;28;20284;-75
2023/09/16 02:47:29;;;;;;;10.70;6.85;;;13.90;99.90;;;;;;5016205;28;20191;-76
2023/09/16 02:49:55;;;;;;;9.80;7.00;;;13.80;99.90;;;;;;5015976;28;20176;-76
2023/09/16 02:52:20;;;;;;;10.95;7.82;;;13.80;99.90;;;;;;4998735;28;20191;-75
2023/09/16 02:54:46;;;;;;;9.65;7.40;;;13.80;99.90;;;;;;5015906;28;20192;-75
2023/09/16 02:57:12;;;;;;;10.13;7.05;;;13.80;99.90;;;;;;5015656;28;20188;-76
2023/09/16 02:59:38;;;;;;;10.80;7.25;;;13.80;99.90;;;;;;5015898;28;20198;-76
2023/09/16 03:02:04;;;;;;;10.13;7.25;;;13.80;99.90;;;;;;5015768;28;20187;-75
2023/09/16 03:04:29;;;;;;;12.90;7.50;;;13.70;99.90;;;;;;5016848;28;20203;-76
2023/09/16 03:06:55;;;;;;;13.20;8.35;;;13.70;99.90;;;;;;4999135;28;20183;-75
2023/09/16 03:09:22;;;;;;;7.75;6.80;;;13.70;99.90;;;;;;5000524;28;20519;-76
2023/09/16 03:11:47;;;;;;;8.35;6.50;;;13.70;99.90;;;;;;4999504;28;20180;-75
2023/09/16 03:14:13;;;;;;;11.35;7.55;;;13.70;99.90;;;;;;5016012;28;20690;-76
2023/09/16 03:16:39;;;;;;;10.95;7.00;;;13.70;99.90;;;;;;5015620;28;20274;-76
2023/09/16 03:19:04;;;;;;;9.32;6.75;;;13.60;99.90;;;;;;4998919;28;20211;-76
2023/09/16 03:21:30;;;;;;;12.77;7.35;;;13.60;99.90;;;;;;5015106;28;20665;-76
2023/09/16 03:23:56;;;;;;;9.90;7.45;;;13.60;99.90;;;;;;4998227;28;20204;-76
2023/09/16 03:26:22;;;;;;;12.85;7.95;;;13.60;99.90;;;;;;5015908;28;20168;-75
2023/09/16 03:28:48;;;;;;;10.32;7.80;;;13.60;99.90;;;;;;5015749;28;20172;-76
2023/09/16 03:31:14;;;;;;;8.15;7.18;;;13.60;99.90;;;;;;4996714;28;20562;-76
2023/09/16 03:33:40;;;;;;;9.52;6.88;;;13.60;99.90;;;;;;5015345;28;20648;-76
2023/09/16 03:36:06;;;;;;;10.27;6.50;;;13.50;99.90;;;;;;4997091;28;20212;-76
2023/09/16 03:38:34;;;;;;;10.55;7.07;;;13.60;99.90;;;;;;5014199;28;20525;-74
2023/09/16 03:41:00;;;;;;;9.00;7.28;;;13.50;99.90;;;;;;5014238;28;20184;-76
2023/09/16 03:43:27;;;;;;;10.80;7.72;;;13.50;99.90;;;;;;4997479;28;20290;-76
2023/09/16 03:45:53;;;;;;;9.27;6.75;;;13.50;99.90;;;;;;5012204;28;20238;-75
2023/09/16 03:48:19;;;;;;;7.50;6.60;;;13.50;99.90;;;;;;5014066;28;20176;-75
2023/09/16 03:50:46;;;;;;;10.32;6.82;;;13.50;99.90;;;;;;5001388;28;20243;-76
2023/09/16 03:53:12;;;;;;;9.98;7.68;;;13.50;99.90;;;;;;4983514;28;20562;-76
2023/09/16 03:55:38;;;;;;;14.05;7.15;;;13.50;99.90;;;;;;5015166;28;20196;-75
2023/09/16 03:58:03;;;;;;;11.48;7.22;;;13.50;99.90;;;;;;5015245;28;20180;-76
2023/09/16 04:00:29;;;;;;;7.63;6.72;;;13.50;99.90;;;;;;4996579;28;20271;-76
2023/09/16 04:02:55;;;;;;;10.88;6.50;;;13.50;99.90;;;;;;5014552;28;20172;-75
2023/09/16 04:05:21;;;;;;;9.55;7.00;;;13.50;99.90;;;;;;4994961;28;20802;-76
2023/09/16 04:07:47;;;;;;;8.07;6.75;;;13.50;99.90;;;;;;5012369;28;20176;-76
2023/09/16 04:10:13;;;;;;;10.38;7.18;;;13.40;99.90;;;;;;4995969;28;20241;-76
2023/09/16 04:12:38;;;;;;;8.65;6.53;;;13.50;99.90;;;;;;5013565;28;20187;-75
2023/09/16 04:15:05;;;;;;;11.43;6.97;;;13.50;99.90;;;;;;4995839;28;20222;-77
2023/09/16 04:17:31;;;;;;;8.15;6.88;;;13.40;99.90;;;;;;5012702;28;20290;-75
2023/09/16 04:19:57;;;;;;;9.80;7.15;;;13.50;99.90;;;;;;5013443;28;20184;-76
2023/09/16 04:22:22;;;;;;;9.43;7.13;;;13.50;99.90;;;;;;4996309;28;20183;-75
2023/09/16 04:24:48;;;;;;;8.32;6.90;;;13.40;99.90;;;;;;4995228;28;20316;-75
2023/09/16 04:27:14;;;;;;;10.05;7.25;;;13.40;99.90;;;;;;4996928;28;20663;-75
2023/09/16 04:29:40;;;;;;;9.07;7.07;;;13.40;99.90;;;;;;5013243;28;20180;-76
2023/09/16 04:32:06;;;;;;;10.13;7.32;;;13.40;99.90;;;;;;5013199;28;20194;-75
2023/09/16 04:34:33;;;;;;;9.52;7.10;;;13.40;99.90;;;;;;5013010;28;20202;-77
2023/09/16 04:36:59;;;;;;;9.23;7.30;;;13.30;99.90;;;;;;4996236;28;20203;-75
2023/09/16 04:39:26;;;;;;;8.15;6.60;;;13.30;99.90;;;;;;5012816;28;20537;-75
2023/09/16 04:41:55;;;;;;;9.02;6.80;;;13.30;99.90;;;;;;5013754;28;20176;-75
2023/09/16 04:44:22;;;;;;;9.23;6.72;;;13.30;99.90;;;;;;5012355;28;20223;-75
2023/09/16 04:46:54;;;;;;;8.73;6.93;;;13.30;99.90;;;;;;5004246;28;20279;-75
2023/09/16 04:49:21;;;;;;;10.57;7.70;;;13.20;99.90;;;;;;4976693;28;20169;-75
2023/09/16 04:51:47;;;;;;;9.63;6.95;;;13.20;99.90;;;;;;4992908;28;20184;-75
2023/09/16 04:54:13;;;;;;;8.75;7.47;;;13.20;99.90;;;;;;5013585;28;20622;-75
2023/09/16 04:56:39;;;;;;;12.98;7.70;;;13.20;99.90;;;;;;5011538;28;20247;-75
2023/09/16 04:59:06;;;;;;;9.95;6.90;;;13.20;99.90;;;;;;4995937;28;20616;-75
2023/09/16 05:01:32;;;;;;;12.00;7.30;;;13.20;99.90;;;;;;5012078;28;20183;-75
2023/09/16 05:03:59;;;;;;;10.77;7.45;;;13.20;99.90;;;;;;5012089;28;20203;-75
2023/09/16 05:06:25;;;;;;;11.52;7.07;;;13.20;99.90;;;;;;5011006;28;20211;-75
2023/09/16 05:08:53;;;;;;;9.00;6.82;;;13.20;99.90;;;;;;4995333;28;20192;-76
2023/09/16 05:11:18;;;;;;;9.48;7.55;;;13.20;99.90;;;;;;4992882;28;20671;-75
2023/09/16 05:13:45;;;;;;;9.65;7.40;;;13.20;99.90;;;;;;4992648;28;20269;-76
2023/09/16 05:16:11;;;;;;;9.98;6.97;;;13.20;99.90;;;;;;5007898;28;20195;-76
2023/09/16 05:18:37;;;;;;;10.60;7.18;;;13.20;99.90;;;;;;4997201;28;20592;-75
2023/09/16 05:21:03;;;;;;;12.55;7.53;;;13.20;99.90;;;;;;5016538;28;20211;-76
2023/09/16 05:23:34;;;;;;;9.90;6.95;;;13.20;99.90;;;;;;5000002;28;20200;-75
2023/09/16 05:26:00;;;;;;;8.35;6.45;;;13.20;99.90;;;;;;5015036;28;20547;-75
2023/09/16 05:28:27;;;;;;;8.77;7.07;;;13.30;99.90;;;;;;4999705;28;20551;-75
2023/09/16 05:30:56;;;;;;;9.13;7.45;;;13.30;99.90;;;;;;4997729;28;20234;-75
2023/09/16 05:33:23;;;;;;;10.48;7.30;;;13.30;99.90;;;;;;4999550;28;20710;-76
2023/09/16 05:35:49;;;;;;;9.02;6.95;;;13.30;99.90;;;;;;4998558;28;20211;-76
2023/09/16 05:38:15;;;;;;;9.32;7.03;;;13.30;99.90;;;;;;4996228;28;20552;-75
2023/09/16 05:40:41;;;;;;;11.10;6.88;;;13.40;99.90;;;;;;4997511;28;20181;-75
2023/09/16 05:43:06;;;;;;;8.32;6.82;;;13.40;99.90;;;;;;4979976;28;20177;-75
2023/09/16 05:45:32;;;;;;;8.55;7.40;;;13.40;99.90;;;;;;4991001;28;20718;-75
2023/09/16 05:48:02;;;;;;;10.60;7.13;;;13.40;99.90;;;;;;4999294;28;20675;-75
2023/09/16 05:50:29;;;;;;;8.45;6.43;;;13.40;99.90;;;;;;4999352;28;20544;-75
2023/09/16 05:52:55;;;;;;;7.90;6.50;;;13.50;99.90;;;;;;4997374;28;20190;-75
2023/09/16 05:55:20;;;;;;;8.90;6.18;;;13.50;99.90;;;;;;5016687;28;20203;-75
2023/09/16 05:57:46;;;;;;;10.48;6.93;;;13.60;99.90;;;;;;4999393;28;20228;-75
2023/09/16 06:00:12;;;;;;;9.70;7.20;;;13.60;99.90;;;;;;4998257;28;20624;-76
2023/09/16 06:02:41;;;;;;;13.23;7.25;;;13.70;99.90;;;;;;5016492;28;20180;-76
2023/09/16 06:05:08;;;;;;;10.65;7.40;;;13.70;99.90;;;;;;5015305;28;20207;-75
2023/09/16 06:07:40;;;;;;;12.52;7.55;;;13.80;99.90;;;;;;5015018;28;20525;-75
2023/09/16 06:10:06;;;;;;;10.13;7.22;;;13.90;99.90;;;;;;5011012;28;20275;-76
2023/09/16 06:12:33;;;;;;;8.57;6.60;;;14.00;99.90;;;;;;4991240;28;20210;-75
2023/09/16 06:14:59;;;;;;;9.75;7.45;;;14.00;99.90;;;;;;4998452;28;20310;-75
2023/09/16 06:17:24;;;;;;;9.52;7.07;;;14.10;99.90;;;;;;4992501;28;20614;-75
2023/09/16 06:19:54;;;;;;;10.40;7.20;;;14.20;99.90;;;;;;4996808;28;20187;-74
2023/09/16 06:22:21;;;;;;;10.48;7.25;;;14.20;99.90;;;;;;4999213;28;20263;-75
2023/09/16 06:24:47;;;;;;;7.55;6.18;;;14.30;99.90;;;;;;5014694;28;20564;-75
2023/09/16 06:27:14;;;;;;;8.88;5.97;;;14.40;99.90;;;;;;5016400;28;20184;-75
2023/09/16 06:29:41;;;;;;;7.72;6.20;;;14.50;99.90;;;;;;4997543;28;20180;-74
2023/09/16 06:32:07;;;;;;;9.05;7.03;;;14.60;99.90;;;;;;5012454;28;20196;-74
2023/09/16 06:34:36;;;;;;;8.52;6.85;;;14.70;99.90;;;;;;4996633;28;20212;-74
2023/09/16 06:37:05;;;;;;;7.95;6.68;;;14.90;99.90;;;;;;4997497;28;20184;-74
2023/09/16 06:39:35;;;;;;;7.95;6.03;;;14.90;99.90;;;;;;5013737;28;20571;-74
2023/09/16 06:42:01;;;;;;;7.15;5.80;;;15.10;99.90;;;;;;5014119;28;20238;-74
2023/09/16 06:44:27;;;;;;;6.95;5.43;;;15.20;99.90;;;;;;4998688;28;20218;-75
2023/09/16 06:46:55;;;;;;;7.70;6.20;;;15.20;99.90;;;;;;5014649;28;20722;-74
2023/09/16 06:49:27;;;;;;;9.45;6.38;;;15.30;99.90;;;;;;4998276;28;20176;-74
2023/09/16 06:51:58;;;;;;;8.32;5.82;;;15.40;99.90;;;;;;4998243;28;20602;-75
2023/09/16 06:54:25;;;;;;;8.63;5.57;;;15.50;99.90;;;;;;4999670;28;20200;-75
2023/09/16 06:56:51;;;;;;;9.70;5.93;;;15.60;99.90;;;;;;5016416;28;20247;-75
2023/09/16 06:59:16;;;;;;;11.38;6.35;;;15.70;99.90;;;;;;4998324;28;20180;-75
2023/09/16 07:01:42;;;;;;;7.13;6.20;;;15.80;99.90;;;;;;5015622;28;20172;-75
2023/09/16 07:04:08;;;;;;;8.65;5.88;;;15.90;99.90;;;;;;4998169;28;20223;-75
2023/09/16 07:06:34;;;;;;;10.55;6.07;;;16.00;99.90;;;;;;4998688;28;20186;-75
2023/09/16 07:08:59;;;;;;;7.43;6.05;;;16.20;99.90;;;;;;5015622;28;20575;-74
2023/09/16 07:11:25;;;;;;;6.85;5.60;;;16.20;99.90;;;;;;5016161;28;20254;-76
2023/09/16 07:13:51;;;;;;;6.57;5.43;;;16.40;99.90;;;;;;5015271;28;20226;-75
2023/09/16 07:16:19;;;;;;;7.80;6.28;;;16.50;99.90;;;;;;5017225;28;20245;-76
2023/09/16 07:18:45;;;;;;;7.80;6.00;;;16.60;99.90;;;;;;4999699;28;20207;-75
2023/09/16 07:21:11;;;;;;;9.27;6.25;;;16.70;99.90;;;;;;5015766;28;20652;-76
2023/09/16 07:23:37;;;;;;;8.02;5.65;;;16.70;99.90;;;;;;5016686;28;20203;-78
2023/09/16 07:26:03;;;;;;;6.95;5.57;;;16.80;99.90;;;;;;5015633;28;20668;-76
2023/09/16 07:28:28;;;;;;;7.45;5.15;;;16.90;99.90;;;;;;5015868;28;20172;-76
2023/09/16 07:30:55;;;;;;;7.40;5.88;;;17.00;99.90;;;;;;5014434;28;20182;-76
2023/09/16 07:33:21;;;;;;;6.07;5.22;;;17.10;99.90;;;;;;5016533;28;20156;-75
2023/09/16 07:35:48;;;;;;;8.90;5.78;;;17.20;99.90;;;;;;5015912;28;20253;-75
2023/09/16 07:38:15;;;;;;;7.07;5.43;;;17.30;99.90;;;;;;4998141;28;20267;-74
2023/09/16 07:40:41;;;;;;;9.77;6.13;;;17.40;99.90;;;;;;4997250;28;20266;-75
2023/09/16 07:43:11;;;;;;;6.22;5.07;;;17.50;99.90;;;;;;4997256;28;20176;-75
2023/09/16 07:45:38;;;;;;;5.80;5.20;;;17.50;99.90;;;;;;4997131;28;20223;-75
2023/09/16 07:48:09;;;;;;;6.93;5.00;;;17.70;99.90;;;;;;4997166;28;20213;-74
2023/09/16 07:50:35;;;;;;;6.38;5.07;;;17.80;99.90;;;;;;4997007;28;20172;-75
2023/09/16 07:53:01;;;;;;;6.90;5.20;;;17.90;99.90;;;;;;4996794;28;20183;-75
2023/09/16 07:55:27;;;;;;;5.28;4.78;;;18.00;99.90;;;;;;5015381;28;20196;-75
2023/09/16 07:57:52;;;;;;;5.78;5.03;;;18.20;99.90;;;;;;4997068;28;20270;-75
2023/09/16 08:00:18;;;;;;;5.15;4.45;;;18.30;99.90;;;;;;4996855;28;20234;-74
2023/09/16 08:02:44;;;;;;;6.35;5.55;;;18.50;99.90;;;;;;4996799;28;20179;-75
2023/09/16 08:05:22;;;;;;;7.10;4.47;;;18.60;99.90;;;;;;5014514;28;20219;-73
2023/09/16 08:07:48;;;;;;;5.22;4.50;;;18.70;99.90;;;;;;5014511;28;20179;-73
2023/09/16 08:10:13;;;;;;;6.18;4.63;;;18.80;99.90;;;;;;5015026;28;20167;-75
2023/09/16 08:12:39;;;;;;;5.65;5.05;;;18.90;99.90;;;;;;4996822;28;20172;-73
2023/09/16 08:15:06;;;;;;;6.35;4.82;;;19.00;99.90;;;;;;5014171;28;20210;-73
2023/09/16 08:17:37;;;;;;;5.93;4.45;;;19.10;99.90;;;;;;5014631;28;20240;-74
2023/09/16 08:20:04;;;;;;;6.22;5.50;;;19.20;99.90;;;;;;4996811;28;20180;-74
2023/09/16 08:22:30;;;;;;;5.10;4.63;;;19.30;99.90;;;;;;5014353;28;20183;-74
2023/09/16 08:24:56;;;;;;;5.55;4.93;;;19.40;99.90;;;;;;5014719;28;20207;-78
2023/09/16 08:27:22;;;;;;;6.68;5.00;;;19.50;99.90;;;;;;4997313;28;20178;-76
2023/09/16 08:29:49;;;;;;;8.13;4.97;;;19.60;99.90;;;;;;4997696;28;20267;-77
2023/09/16 08:32:16;;;;;;;5.75;4.75;;;19.60;99.90;;;;;;4996739;28;20230;-77
2023/09/16 08:34:41;;;;;;;6.60;4.55;;;19.70;99.90;;;;;;4996370;28;20211;-77
2023/09/16 08:37:07;;;;;;;7.47;5.28;;;19.70;99.90;;;;;;5013802;28;20186;-77
2023/09/16 08:39:33;;;;;;;5.53;4.90;;;19.90;99.90;;;;;;4996290;28;20718;-77
2023/09/16 08:42:43;;;;;;;5.63;3.88;;;20.00;99.90;;;;;;4996497;28;20180;-76
2023/09/16 08:45:14;;;;;;;6.07;4.95;;;20.10;99.90;;;;;;4991555;28;20321;-77
2023/09/16 08:47:43;;;;;;;5.93;4.95;;;20.30;99.90;;;;;;5013981;28;20239;-77
2023/09/16 08:50:11;;;;;;;5.03;4.53;;;20.50;99.90;;;;;;4996883;28;20541;-76
2023/09/16 08:52:48;;;;;;;5.88;4.95;;;20.60;99.90;;;;;;4995686;28;20176;-74
2023/09/16 08:55:15;;;;;;;5.80;4.53;;;20.70;99.90;;;;;;5014158;28;20667;-76
2023/09/16 08:57:55;;;;;;;6.10;4.88;;;20.80;99.90;;;;;;5013807;28;20186;-75
2023/09/16 09:00:21;;;;;;;5.18;4.38;;;20.90;99.90;;;;;;4996877;28;20671;-75
2023/09/16 09:02:50;;;;;;;5.43;4.25;;;21.00;99.90;;;;;;5014255;28;20247;-76
2023/09/16 09:05:17;;;;;;;5.60;4.93;;;21.00;99.90;;;;;;4996014;28;20574;-76
2023/09/16 09:07:43;;;;;;;5.68;4.65;;;21.00;99.90;;;;;;4980062;28;20207;-75
2023/09/16 09:10:12;;;;;;;5.03;4.45;;;21.00;99.90;;;;;;5014049;28;20167;-75
2023/09/16 09:12:40;;;;;;;6.80;5.15;;;21.10;99.90;;;;;;5013730;28;20176;-75
2023/09/16 09:15:13;;;;;;;8.88;4.40;;;21.30;99.90;;;;;;4996026;28;20211;-75
2023/09/16 09:17:48;;;;;;;5.75;5.05;;;21.40;99.90;;;;;;5014164;28;20160;-75
2023/09/16 09:20:23;;;;;;;5.97;4.70;;;21.60;99.90;;;;;;5013905;28;20620;-76
2023/09/16 09:22:50;;;;;;;7.72;5.28;;;21.70;99.90;;;;;;4996034;28;20262;-76
2023/09/16 09:25:24;;;;;;;6.95;4.70;;;21.80;99.90;;;;;;5013830;28;20203;-75
2023/09/16 09:27:51;;;;;;;7.05;5.03;;;21.90;99.90;;;;;;4996897;28;20278;-75
2023/09/16 09:30:26;;;;;;;7.13;4.80;;;22.00;99.90;;;;;;5014411;28;20172;-75
2023/09/16 09:32:53;;;;;;;6.25;5.30;;;22.00;99.90;;;;;;4997298;28;20167;-75
2023/09/16 09:35:21;;;;;;;7.07;4.68;;;21.80;99.90;;;;;;4996750;28;20245;-75
2023/09/16 09:37:48;;;;;;;6.78;4.78;;;21.80;99.90;;;;;;5013898;28;20582;-76
2023/09/16 09:40:14;;;;;;;6.43;5.13;;;21.90;99.90;;;;;;4996467;28;20648;-76
2023/09/16 09:42:53;;;;;;;5.20;4.40;;;22.00;99.90;;;;;;4996304;28;20319;-75
2023/09/16 09:45:20;;;;;;;6.40;5.13;;;22.20;99.90;;;;;;4995880;28;20695;-76
2023/09/16 09:47:47;;;;;;;6.30;5.32;;;22.40;99.90;;;;;;4996182;28;20208;-76
2023/09/16 09:50:15;;;;;;;6.32;4.53;;;22.40;99.90;;;;;;5013936;28;20175;-76
2023/09/16 09:52:54;;;;;;;6.50;4.85;;;22.50;99.90;;;;;;5013382;28;20386;-75
2023/09/16 09:55:23;;;;;;;5.85;4.75;;;22.60;99.90;;;;;;4995847;28;20202;-75
2023/09/16 09:57:52;;;;;;;6.43;4.65;;;22.70;99.90;;;;;;4995710;28;20183;-76
2023/09/16 10:00:20;;;;;;;7.05;5.07;;;22.70;99.90;;;;;;5013289;28;20231;-76
2023/09/16 10:02:47;;;;;;;6.53;4.95;;;22.80;99.90;;;;;;4995698;28;20522;-76
2023/09/16 10:05:19;;;;;;;5.65;5.05;;;22.70;99.90;;;;;;4997703;28;20226;-76
2023/09/16 10:07:46;;;;;;;7.47;5.50;;;22.80;99.90;;;;;;5016580;28;20242;-76
2023/09/16 10:10:21;;;;;;;6.90;5.15;;;22.80;99.90;;;;;;4999160;28;20203;-76
2023/09/16 10:12:51;;;;;;;7.07;5.47;;;22.90;99.90;;;;;;5016692;28;20155;-75
2023/09/16 10:15:17;;;;;;;5.60;4.80;;;23.10;99.90;;;;;;4998856;28;20587;-76
2023/09/16 10:17:45;;;;;;;5.70;4.97;;;23.20;99.90;;;;;;4999021;28;20184;-75
2023/09/16 10:20:12;;;;;;;6.40;5.15;;;23.20;99.90;;;;;;5016632;28;20640;-76
2023/09/16 10:22:41;;;;;;;7.88;5.88;;;23.20;99.90;;;;;;5016483;28;20176;-76
2023/09/16 10:25:08;;;;;;;5.95;5.05;;;23.10;99.90;;;;;;4998813;28;20216;-76
2023/09/16 10:27:40;;;;;;;6.85;5.45;;;23.20;99.90;;;;;;5017005;28;20168;-76
2023/09/16 10:30:07;;;;;;;7.43;5.43;;;23.40;99.90;;;;;;4998753;28;20180;-75
2023/09/16 10:32:34;;;;;;;6.78;5.10;;;23.50;99.90;;;;;;5016228;28;20199;-76
2023/09/16 10:35:03;;;;;;;7.80;4.82;;;23.50;99.90;;;;;;5016250;28;20211;-75
2023/09/16 10:37:29;;;;;;;6.57;5.47;;;23.50;99.90;;;;;;5016048;28;20175;-75
2023/09/16 10:39:56;;;;;;;6.18;5.20;;;23.50;99.90;;;;;;5016252;28;20646;-79
2023/09/16 10:42:24;;;;;;;6.57;5.22;;;23.60;99.90;;;;;;5000137;28;20187;-78
2023/09/16 10:44:51;;;;;;;7.20;5.40;;;23.60;99.90;;;;;;4998399;28;20634;-73
2023/09/16 10:47:17;;;;;;;6.80;5.50;;;23.70;99.90;;;;;;5016479;28;20183;-72
2023/09/16 10:49:46;;;;;;;6.40;5.22;;;23.80;99.90;;;;;;5016012;28;20603;-72
2023/09/16 10:52:20;;;;;;;6.88;5.30;;;23.90;99.90;;;;;;5015824;28;20583;-72
2023/09/16 10:55:13;;;;;;;7.75;5.40;;;24.00;99.90;;;;;;5015883;28;20202;-76
2023/09/16 10:58:16;;;;;;;6.22;5.60;;;24.00;99.90;;;;;;4976076;28;20202;-79
2023/09/16 11:00:50;;;;;;;7.38;5.93;;;24.20;99.90;;;;;;5016108;28;20246;-77
2023/09/16 11:03:17;;;;;;;7.40;5.63;;;24.30;99.90;;;;;;4998322;28;20575;-78
2023/09/16 11:05:43;;;;;;;8.27;5.30;;;24.30;99.90;;;;;;4997952;28;20293;-77
2023/09/16 11:08:09;;;;;;;6.22;5.03;;;24.50;99.90;;;;;;4998200;28;20604;-77
2023/09/16 11:10:36;;;;;;;7.38;6.18;;;24.60;99.90;;;;;;4997952;28;20184;-78
2023/09/16 11:13:02;;;;;;;5.60;4.60;;;24.70;99.90;;;;;;4998114;28;20270;-78
2023/09/16 11:15:35;;;;;;;7.13;5.22;;;24.90;99.90;;;;;;4997633;28;20638;-78
2023/09/16 11:18:07;;;;;;;7.43;5.57;;;25.10;99.90;;;;;;5015159;28;20172;-78
2023/09/16 11:20:36;;;;;;;6.65;5.50;;;25.30;99.90;;;;;;5015709;28;20206;-78
2023/09/16 11:23:04;;;;;;;7.13;5.00;;;25.40;99.90;;;;;;4997938;28;20211;-77
2023/09/16 11:25:35;;;;;;;5.55;4.95;;;25.60;99.90;;;;;;4998183;28;20215;-78
2023/09/16 11:28:03;;;;;;;6.15;5.10;;;25.80;99.90;;;;;;4997951;28;20175;-78
2023/09/16 11:30:31;;;;;;;6.13;4.95;;;26.00;99.90;;;;;;4997939;28;20187;-78
2023/09/16 11:32:57;;;;;;;5.85;5.22;;;26.20;99.90;;;;;;5015415;28;20174;-78
2023/09/16 11:35:26;;;;;;;7.22;5.85;;;26.30;99.90;;;;;;4997828;28;20203;-77
2023/09/16 11:37:56;;;;;;;6.25;5.40;;;26.50;99.90;;;;;;4998372;28;20659;-77
2023/09/16 11:40:26;;;;;;;5.43;4.82;;;26.60;99.90;;;;;;4998124;28;20710;-78
2023/09/16 11:42:54;;;;;;;5.30;4.78;;;26.70;99.90;;;;;;5015783;28;20222;-78
2023/09/16 11:45:20;;;;;;;6.25;5.55;;;26.90;99.90;;;;;;5015398;28;20278;-78
2023/09/16 11:47:50;;;;;;;7.82;5.40;;;26.90;99.90;;;;;;4998198;28;20176;-78
2023/09/16 11:50:23;;;;;;;5.65;4.93;;;26.90;99.90;;;;;;4998832;28;20723;-78
2023/09/16 11:52:49;;;;;;;6.30;5.22;;;26.90;99.90;;;;;;4998228;28;20186;-78
2023/09/16 11:55:16;;;;;;;6.70;5.18;;;26.90;99.90;;;;;;5015996;28;20226;-78
2023/09/16 11:57:42;;;;;;;5.13;4.60;;;27.00;99.90;;;;;;5016149;28;20512;-78
2023/09/16 12:00:10;;;;;;;4.72;4.30;;;27.20;99.90;;;;;;4997903;28;20191;-77
2023/09/16 12:02:36;;;;;;;5.18;4.68;;;27.40;99.90;;;;;;4997748;28;20253;-77
2023/09/16 12:05:03;;;;;;;6.97;5.20;;;27.70;99.90;;;;;;4990580;28;20708;-78
2023/09/16 12:07:32;;;;;;;7.03;5.22;;;27.70;99.90;;;;;;4978306;28;20571;-77
2023/09/16 12:10:06;;;;;;;6.68;4.63;;;27.80;99.90;;;;;;4978274;28;20263;-78
2023/09/16 12:12:32;;;;;;;6.80;5.03;;;28.00;99.90;;;;;;4978671;28;20180;-78
2023/09/16 12:15:02;;;;;;;7.05;5.35;;;28.20;99.90;;;;;;4978228;28;20215;-78
2023/09/16 12:17:28;;;;;;;5.88;5.28;;;27.90;99.90;;;;;;4978811;28;20184;-78
2023/09/16 12:19:56;;;;;;;5.22;4.72;;;27.80;99.90;;;;;;4994717;28;20525;-78
2023/09/16 12:22:23;;;;;;;5.70;5.10;;;27.80;99.90;;;;;;4978478;28;20579;-77
2023/09/16 12:24:54;;;;;;;7.43;5.90;;;27.70;99.90;;;;;;4977949;28;20236;-77
2023/09/16 12:27:21;;;;;;;8.65;5.03;;;27.70;99.90;;;;;;4977902;28;20519;-78
2023/09/16 12:29:46;;;;;;;6.63;5.32;;;27.80;99.90;;;;;;4977705;28;20180;-78
2023/09/16 12:32:23;;;;;;;9.05;6.05;;;27.90;99.90;;;;;;4995634;28;20690;-78
2023/09/16 12:35:06;;;;;;;6.32;5.22;;;28.00;99.90;;;;;;4982908;28;20687;-78
2023/09/16 12:37:32;;;;;;;7.07;5.22;;;28.10;99.90;;;;;;4997675;28;20274;-77
2023/09/16 12:39:58;;;;;;;6.47;5.43;;;28.00;99.90;;;;;;5014076;28;20179;-78
2023/09/16 12:42:25;;;;;;;5.10;4.25;;;28.10;99.90;;;;;;5015335;28;20180;-78
2023/09/16 12:44:52;;;;;;;8.07;5.38;;;28.30;99.90;;;;;;4997024;28;20246;-78